Main page
METAR-TAF:

METAR-TAF

Airports :

Bamako–Modibo Keïta International Airport

Bamako, Mali

latitude: 12-32N, longitude: 007-57W, elevation: 380 m

Current weather observation

The report was made 26 minutes ago, at 14:00 UTC
Wind 7 kt from the West/Northwest, varying between West and North/Northwest
Temperature 36°C
Humidity 25%
Pressure 1010 hPa
Visibility 10 km or more
Few clouds at a height of 2000 ft

METAR: GABS 141400Z 29007KT 260V330 9999 FEW020 36/13 Q1010 NOSIG

Time: 14:26 (14:26 UTC)

Forecast

The report was made 3 hours and 26 minutes ago, at 11:00 UTC
Forecast valid from 14 at 12 UTC to 15 at 18 UTC
Wind 8 kt from the South/Southeast
Visibility: 8000 m
Few clouds at a height of 3000 ft
Probability 40% :
Temporary
from 15 at 06 UTC to 15 at 11 UTC
Visibility: 3500 m
haze

TAF: GABS 141100Z 1412/1518 16008KT 8000 FEW030 PROB40 TEMPO 1506/1511 3500 HZ

Weather observations and forecasts of more than 4000 airports (METAR and TAF reports).

The available stations are represented by yellow and red dots on the map.

Hover mouse over dot to see the name of the station.

Then click to see weather observations and forecasts.

To change the map : click on the green buttons with a black cross to zoom in, on the green button with a dash to zoom out, or on the green arrows for adjacent maps.


METAR-TAF: